createdAt,value
2023-04-29T00:03:57.370Z,95949.00
2023-04-29T00:08:02.159Z,95947.00
2023-04-29T00:12:07.448Z,95940.00
2023-04-29T00:16:12.059Z,95944.00
2023-04-29T00:20:15.606Z,95925.00
2023-04-29T00:24:19.996Z,95929.00
2023-04-29T00:28:24.268Z,95919.00
2023-04-29T00:32:29.618Z,95919.00
2023-04-29T00:36:34.134Z,95908.00
2023-04-29T00:40:43.706Z,95905.00
2023-04-29T00:44:47.029Z,95898.00
2023-04-29T00:48:50.936Z,95912.00
2023-04-29T00:52:53.984Z,95914.00
2023-04-29T00:56:59.732Z,95916.00
2023-04-29T01:01:03.969Z,95926.00
2023-04-29T01:05:11.559Z,95916.00
2023-04-29T01:09:35.214Z,95913.00
2023-04-29T01:13:46.222Z,95917.00
2023-04-29T01:17:55.891Z,95905.00
2023-04-29T01:22:03.681Z,95919.00
2023-04-29T01:26:11.434Z,95898.00
2023-04-29T01:30:26.944Z,95897.00
2023-04-29T01:34:40.708Z,95903.00
2023-04-29T01:38:50.474Z,95906.00
2023-04-29T01:43:03.349Z,95899.00
2023-04-29T01:47:07.391Z,95895.00
2023-04-29T01:51:13.599Z,95901.00
2023-04-29T01:55:16.696Z,95901.00
2023-04-29T01:59:21.302Z,95910.00
2023-04-29T02:03:24.568Z,95918.00
2023-04-29T02:07:29.938Z,95923.00
2023-04-29T02:11:33.116Z,95929.00
2023-04-29T02:15:42.659Z,95921.00
2023-04-29T02:19:45.765Z,95914.00
2023-04-29T02:23:50.525Z,95915.00
2023-04-29T02:27:55.222Z,95915.00
2023-04-29T02:32:00.197Z,95917.00
2023-04-29T02:36:08.211Z,95916.00
2023-04-29T02:40:11.823Z,95916.00
2023-04-29T02:44:16.121Z,95914.00
2023-04-29T02:48:20.647Z,95909.00
2023-04-29T02:52:26.445Z,95912.00
2023-04-29T02:56:29.544Z,95918.00
2023-04-29T03:00:33.177Z,95910.00
2023-04-29T03:04:37.581Z,95908.00
2023-04-29T03:08:40.594Z,95916.00
2023-04-29T03:12:43.623Z,95906.00
2023-04-29T03:16:46.701Z,95903.00
2023-04-29T03:20:51.389Z,95912.00
2023-04-29T03:24:57.262Z,95910.00
2023-04-29T03:29:00.533Z,95909.00
2023-04-29T03:33:04.326Z,95909.00
2023-04-29T03:37:11.140Z,95909.00
2023-04-29T03:41:14.253Z,95912.00
2023-04-29T03:45:18.987Z,95916.00
2023-04-29T03:49:23.039Z,95912.00
2023-04-29T03:53:27.553Z,95917.00
2023-04-29T03:57:34.789Z,95913.00
2023-04-29T04:01:37.907Z,95926.00
2023-04-29T04:05:47.698Z,95921.00
2023-04-29T04:09:53.126Z,95925.00
2023-04-29T04:13:56.389Z,95915.00
2023-04-29T04:18:03.194Z,95914.00
2023-04-29T04:22:07.842Z,95909.00
2023-04-29T04:26:12.448Z,95926.00
2023-04-29T04:30:19.353Z,95924.00
2023-04-29T04:34:22.618Z,95923.00
2023-04-29T04:38:26.542Z,95920.00
2023-04-29T04:42:33.671Z,95927.00
2023-04-29T04:46:36.980Z,95931.00
2023-04-29T04:50:40.505Z,95939.00
2023-04-29T04:54:47.652Z,95938.00
2023-04-29T04:58:52.408Z,95937.00
2023-04-29T05:02:55.611Z,95940.00
2023-04-29T05:06:58.785Z,95934.00
2023-04-29T05:11:01.920Z,95931.00
2023-04-29T05:15:07.033Z,95940.00
2023-04-29T05:19:10.040Z,95953.00
2023-04-29T05:23:14.976Z,95963.00
2023-04-29T05:27:22.100Z,95955.00
2023-04-29T05:31:29.717Z,95960.00
2023-04-29T05:35:33.834Z,95956.00
2023-04-29T05:39:36.797Z,95970.00
2023-04-29T05:43:41.834Z,95979.00
2023-04-29T05:47:46.624Z,95972.00
2023-04-29T05:51:52.499Z,95988.00
2023-04-29T05:55:55.544Z,95993.00
2023-04-29T06:00:01.720Z,95995.00
2023-04-29T06:04:09.405Z,96000.00
2023-04-29T06:08:12.609Z,96001.00
2023-04-29T06:12:16.066Z,95996.00
2023-04-29T06:16:28.028Z,96009.00
2023-04-29T06:20:34.440Z,96013.00
2023-04-29T06:24:40.309Z,96017.00
2023-04-29T06:28:43.383Z,96031.00
2023-04-29T06:32:46.741Z,96036.00
2023-04-29T06:36:51.505Z,96024.00
2023-04-29T06:40:57.890Z,96025.00
2023-04-29T06:45:01.078Z,96031.00
2023-04-29T06:49:04.114Z,96031.00
2023-04-29T06:53:16.575Z,96031.00
2023-04-29T06:57:20.820Z,96034.00
2023-04-29T07:01:23.893Z,96038.00
2023-04-29T07:05:31.374Z,96046.00
2023-04-29T07:09:40.551Z,96041.00
2023-04-29T07:13:46.758Z,96052.00
2023-04-29T07:17:49.879Z,96053.00
2023-04-29T07:21:52.862Z,96056.00
2023-04-29T07:25:57.627Z,96058.00
2023-04-29T07:30:06.139Z,96062.00
2023-04-29T07:34:11.040Z,96059.00
2023-04-29T07:38:14.091Z,96066.00
2023-04-29T07:42:21.524Z,96065.00
2023-04-29T07:46:28.546Z,96071.00
2023-04-29T07:50:31.665Z,96071.00
2023-04-29T07:54:34.716Z,96075.00
2023-04-29T07:58:40.279Z,96080.00
2023-04-29T08:02:48.408Z,96083.00
2023-04-29T08:06:52.110Z,96080.00
2023-04-29T08:10:57.954Z,96080.00
2023-04-29T08:15:02.502Z,96085.00
2023-04-29T08:19:05.513Z,96088.00
2023-04-29T08:23:10.628Z,96088.00
2023-04-29T08:27:18.763Z,96097.00
2023-04-29T08:31:25.397Z,96087.00
2023-04-29T08:35:37.852Z,96097.00
2023-04-29T08:39:40.955Z,96097.00
2023-04-29T08:43:47.166Z,96105.00
2023-04-29T08:47:52.566Z,96105.00
2023-04-29T08:51:55.741Z,96103.00
2023-04-29T08:56:05.032Z,96109.00
2023-04-29T09:00:10.606Z,96106.00
2023-04-29T09:04:25.433Z,96110.00
2023-04-29T09:08:29.153Z,96104.00
2023-04-29T09:12:36.176Z,96096.00
2023-04-29T09:16:42.056Z,96101.00
2023-04-29T09:20:48.385Z,96105.00
2023-04-29T09:24:51.787Z,96106.00
2023-04-29T09:29:09.493Z,96105.00
2023-04-29T09:33:14.169Z,96106.00
2023-04-29T09:37:28.277Z,96116.00
2023-04-29T09:41:33.186Z,96115.00
2023-04-29T09:45:36.901Z,96121.00
2023-04-29T09:49:42.548Z,96122.00
2023-04-29T09:53:47.116Z,96126.00
2023-04-29T09:57:55.716Z,96130.00
2023-04-29T10:01:59.820Z,96138.00
2023-04-29T10:06:04.853Z,96141.00
2023-04-29T10:10:12.678Z,96147.00
2023-04-29T10:14:20.428Z,96148.00
2023-04-29T10:18:33.780Z,96158.00
2023-04-29T10:22:49.130Z,96152.00
2023-04-29T10:26:56.506Z,96149.00
2023-04-29T10:31:05.246Z,96151.00
2023-04-29T10:35:10.344Z,96156.00
2023-04-29T10:39:23.128Z,96147.00
2023-04-29T10:43:31.029Z,96155.00
2023-04-29T10:47:36.033Z,96144.00
2023-04-29T10:51:47.175Z,96141.00
2023-04-29T10:55:56.053Z,96136.00
2023-04-29T11:00:00.684Z,96129.00
2023-04-29T11:04:07.866Z,96145.00
2023-04-29T11:08:14.017Z,96129.00
2023-04-29T11:12:21.858Z,96133.00
2023-04-29T11:16:29.386Z,96149.00
2023-04-29T11:20:32.883Z,96144.00
2023-04-29T11:24:36.647Z,96154.00
2023-04-29T11:28:43.208Z,96156.00
2023-04-29T11:32:54.531Z,96161.00
2023-04-29T11:37:00.134Z,96156.00
2023-04-29T11:41:03.277Z,96162.00
2023-04-29T11:45:13.053Z,96172.00
2023-04-29T11:49:23.024Z,96165.00
2023-04-29T11:53:30.282Z,96163.00
2023-04-29T11:57:35.358Z,96165.00
2023-04-29T12:01:39.573Z,96168.00
2023-04-29T12:05:53.037Z,96174.00
2023-04-29T12:10:00.327Z,96184.00
2023-04-29T12:14:06.248Z,96188.00
2023-04-29T12:18:09.972Z,96173.00
2023-04-29T12:22:14.670Z,96189.00
2023-04-29T12:26:21.241Z,96185.00
2023-04-29T12:30:27.515Z,96179.00
2023-04-29T12:34:34.958Z,96177.00
2023-04-29T12:38:54.756Z,96189.00
2023-04-29T12:43:02.051Z,96179.00
2023-04-29T12:47:09.986Z,96186.00
2023-04-29T12:51:14.561Z,96197.00
2023-04-29T12:55:19.416Z,96193.00
2023-04-29T12:59:22.572Z,96199.00
2023-04-29T13:03:28.032Z,96200.00
2023-04-29T13:07:38.228Z,96195.00
2023-04-29T13:11:45.892Z,96195.00
2023-04-29T13:15:51.575Z,96188.00
2023-04-29T13:19:54.780Z,96194.00
2023-04-29T13:23:57.754Z,96196.00
2023-04-29T13:28:02.327Z,96188.00
2023-04-29T13:32:09.402Z,96194.00
2023-04-29T13:36:12.770Z,96185.00
2023-04-29T13:40:21.009Z,96182.00
2023-04-29T13:44:47.044Z,96202.00
2023-04-29T13:53:40.983Z,96192.00
2023-04-29T14:05:51.735Z,96196.00
2023-04-29T14:09:55.863Z,96193.00
2023-04-29T14:13:58.993Z,96199.00
2023-04-29T14:18:03.637Z,96192.00
2023-04-29T14:22:06.655Z,96202.00
2023-04-29T14:26:27.249Z,96207.00
2023-04-29T14:30:31.352Z,96210.00
2023-04-29T14:34:35.725Z,96213.00
2023-04-29T14:38:40.343Z,96213.00
2023-04-29T14:42:49.202Z,96205.00
2023-04-29T14:46:55.184Z,96214.00
2023-04-29T14:50:59.593Z,96234.00
2023-04-29T14:55:03.959Z,96231.00
2023-04-29T14:59:08.947Z,96229.00
2023-04-29T15:03:20.147Z,96239.00
2023-04-29T15:07:26.938Z,96234.00
2023-04-29T15:11:30.172Z,96243.00
2023-04-29T15:15:33.256Z,96250.00
2023-04-29T15:19:36.710Z,96250.00
2023-04-29T15:23:41.293Z,96243.00
2023-04-29T15:27:47.394Z,96256.00
2023-04-29T15:31:52.475Z,96253.00
2023-04-29T15:36:02.547Z,96258.00
2023-04-29T15:40:11.307Z,96262.00
2023-04-29T15:44:14.328Z,96274.00
2023-04-29T15:48:22.213Z,96271.00
2023-04-29T15:52:25.475Z,96278.00
2023-04-29T15:56:31.184Z,96275.00
2023-04-29T16:00:34.300Z,96277.00
2023-04-29T16:04:39.575Z,96286.00
2023-04-29T16:08:46.268Z,96290.00
2023-04-29T16:12:51.128Z,96294.00
2023-04-29T16:16:55.338Z,96288.00
2023-04-29T16:20:58.596Z,96291.00
2023-04-29T16:25:02.511Z,96294.00
2023-04-29T16:29:09.978Z,96293.00
2023-04-29T16:33:17.988Z,96295.00
2023-04-29T16:37:24.950Z,96305.00
2023-04-29T16:41:33.661Z,96312.00
2023-04-29T16:45:43.087Z,96312.00
2023-04-29T16:49:50.678Z,96320.00
2023-04-29T16:53:55.314Z,96328.00
2023-04-29T16:57:59.687Z,96315.00
2023-04-29T17:02:07.854Z,96319.00
2023-04-29T17:06:12.290Z,96330.00
2023-04-29T17:10:15.349Z,96328.00
2023-04-29T17:14:18.440Z,96330.00
2023-04-29T17:18:26.262Z,96328.00
2023-04-29T17:22:30.948Z,96344.00
2023-04-29T17:26:34.020Z,96348.00
2023-04-29T17:30:39.252Z,96341.00
2023-04-29T17:34:47.474Z,96347.00
2023-04-29T17:38:52.107Z,96345.00
2023-04-29T17:42:58.141Z,96358.00
2023-04-29T17:47:04.283Z,96361.00
2023-04-29T17:51:08.776Z,96358.00
2023-04-29T17:55:11.901Z,96358.00
2023-04-29T17:59:17.371Z,96361.00
2023-04-29T18:03:20.736Z,96371.00
2023-04-29T18:07:25.333Z,96369.00
2023-04-29T18:11:28.439Z,96370.00
2023-04-29T18:15:31.500Z,96373.00
2023-04-29T18:19:34.824Z,96380.00
2023-04-29T18:23:41.257Z,96379.00
2023-04-29T18:27:46.386Z,96387.00
2023-04-29T18:31:49.597Z,96384.00
2023-04-29T18:36:00.628Z,96378.00
2023-04-29T18:40:10.979Z,96382.00
2023-04-29T18:44:14.457Z,96389.00
2023-04-29T18:48:21.406Z,96400.00
2023-04-29T18:52:27.839Z,96410.00
2023-04-29T18:56:33.886Z,96411.00
2023-04-29T19:00:37.093Z,96420.00
2023-04-29T19:04:42.066Z,96417.00
2023-04-29T19:08:45.482Z,96429.00
2023-04-29T19:12:50.085Z,96424.00
2023-04-29T19:16:55.159Z,96429.00
2023-04-29T19:20:58.654Z,96425.00
2023-04-29T19:25:01.900Z,96431.00
2023-04-29T19:29:07.326Z,96438.00
2023-04-29T19:33:20.817Z,96446.00
2023-04-29T19:37:23.951Z,96444.00
2023-04-29T19:41:28.506Z,96443.00
2023-04-29T19:45:35.856Z,96450.00
2023-04-29T19:49:39.299Z,96456.00
2023-04-29T19:53:42.910Z,96461.00
2023-04-29T19:57:46.263Z,96459.00
2023-04-29T20:01:52.531Z,96459.00
2023-04-29T20:05:57.185Z,96459.00
2023-04-29T20:10:00.482Z,96460.00
2023-04-29T20:14:03.814Z,96461.00
2023-04-29T20:18:10.304Z,96454.00
2023-04-29T20:22:13.698Z,96457.00
2023-04-29T20:26:17.880Z,96462.00
2023-04-29T20:30:23.183Z,96462.00
2023-04-29T20:34:27.914Z,96469.00
2023-04-29T20:38:37.322Z,96464.00
2023-04-29T20:42:43.411Z,96460.00
2023-04-29T20:46:47.666Z,96472.00
2023-04-29T20:50:52.215Z,96471.00
2023-04-29T20:54:55.292Z,96476.00
2023-04-29T20:59:00.570Z,96470.00
2023-04-29T21:03:03.883Z,96477.00
2023-04-29T21:07:12.120Z,96484.00
2023-04-29T21:11:19.293Z,96474.00
2023-04-29T21:15:22.412Z,96480.00
2023-04-29T21:19:25.719Z,96485.00
2023-04-29T21:23:31.213Z,96490.00
2023-04-29T21:27:35.825Z,96487.00
2023-04-29T21:31:43.075Z,96501.00
2023-04-29T21:35:52.284Z,96501.00
2023-04-29T21:40:00.475Z,96500.00
2023-04-29T21:44:04.448Z,96496.00
2023-04-29T21:48:15.278Z,96493.00
2023-04-29T21:52:23.061Z,96503.00
2023-04-29T21:56:27.460Z,96502.00
2023-04-29T22:00:33.429Z,96496.00
2023-04-29T22:04:36.911Z,96494.00
2023-04-29T22:08:39.933Z,96498.00
2023-04-29T22:12:44.339Z,96497.00
2023-04-29T22:16:50.230Z,96493.00
2023-04-29T22:20:53.738Z,96499.00
2023-04-29T22:24:56.985Z,96497.00
2023-04-29T22:29:01.479Z,96503.00
2023-04-29T22:33:04.821Z,96512.00
2023-04-29T22:37:13.168Z,96505.00
2023-04-29T22:41:18.372Z,96505.00
2023-04-29T22:45:22.892Z,96501.00
2023-04-29T22:49:27.515Z,96512.00
2023-04-29T22:53:30.561Z,96508.00
2023-04-29T22:57:37.270Z,96511.00
2023-04-29T23:01:44.227Z,96499.00
2023-04-29T23:05:48.462Z,96511.00
2023-04-29T23:09:52.403Z,96511.00
2023-04-29T23:13:58.054Z,96506.00
2023-04-29T23:18:02.840Z,96513.00
2023-04-29T23:22:07.382Z,96521.00
2023-04-29T23:26:10.404Z,96520.00
2023-04-29T23:30:13.640Z,96529.00
2023-04-29T23:34:18.479Z,96522.00
2023-04-29T23:38:24.473Z,96528.00
2023-04-29T23:42:27.884Z,96532.00
2023-04-29T23:46:32.838Z,96522.00
2023-04-29T23:50:41.969Z,96527.00
2023-04-29T23:54:50.562Z,96519.00
2023-04-29T23:58:56.303Z,96518.00
